Time;durP1;ratioP1;P1;durP2;ratioP2;P2;SDS_P1;SDS_P2;PMS_P1;PMS_P2;Temp;Humidity;BMP_temperature;BMP_pressure;BME280_temperature;BME280_humidity;BME280_pressure;Samples;Min_cycle;Max_cycle;Signal;HPM_P1;HPM_P2
2023/04/11 00:02:02;;;;;;;6.85;1.88;;;7.70;99.90;;;;;;4992796;28;20063;-84
2023/04/11 00:04:28;;;;;;;5.68;1.67;;;7.70;99.90;;;;;;5026104;28;20053;-85
2023/04/11 00:06:53;;;;;;;6.82;2.03;;;7.60;99.90;;;;;;4993142;28;20712;-84
2023/04/11 00:09:19;;;;;;;5.05;1.63;;;7.60;99.90;;;;;;5009565;28;20494;-84
2023/04/11 00:11:45;;;;;;;4.78;1.88;;;7.60;99.90;;;;;;5009315;28;20069;-84
2023/04/11 00:14:11;;;;;;;7.45;1.60;;;7.60;99.90;;;;;;5008905;28;20042;-85
2023/04/11 00:16:36;;;;;;;7.43;1.70;;;7.60;99.90;;;;;;5009221;28;20497;-85
2023/04/11 00:19:02;;;;;;;4.25;1.70;;;7.60;99.90;;;;;;4992597;28;20053;-86
2023/04/11 00:21:28;;;;;;;5.43;1.35;;;7.50;99.90;;;;;;4993148;28;20053;-86
2023/04/11 00:23:54;;;;;;;5.03;1.67;;;7.50;99.90;;;;;;5009302;28;20120;-85
2023/04/11 00:26:22;;;;;;;6.93;1.80;;;7.50;99.90;;;;;;4993062;28;20157;-85
2023/04/11 00:28:48;;;;;;;6.15;1.75;;;7.50;99.90;;;;;;4993041;28;20041;-85
2023/04/11 00:31:15;;;;;;;5.25;1.55;;;7.50;99.90;;;;;;5009647;28;20053;-86
2023/04/11 00:33:41;;;;;;;3.97;1.40;;;7.50;99.90;;;;;;4993279;28;20089;-85
2023/04/11 00:36:07;;;;;;;10.05;2.25;;;7.40;99.90;;;;;;4992426;28;20556;-85
2023/04/11 00:38:33;;;;;;;4.43;1.45;;;7.40;99.90;;;;;;5009110;28;20045;-86
2023/04/11 00:40:59;;;;;;;7.68;1.70;;;7.30;99.90;;;;;;4993123;28;20050;-85
2023/04/11 00:43:24;;;;;;;5.28;1.55;;;7.20;99.90;;;;;;4992933;28;20056;-84
2023/04/11 00:45:50;;;;;;;4.85;1.45;;;7.10;99.90;;;;;;4992769;28;20137;-85
2023/04/11 00:48:16;;;;;;;5.93;1.70;;;7.10;99.90;;;;;;4976654;28;20050;-85
2023/04/11 00:50:41;;;;;;;8.93;1.83;;;7.10;99.90;;;;;;4992020;28;20471;-85
2023/04/11 00:53:09;;;;;;;6.93;1.60;;;7.30;99.90;;;;;;4976717;28;20577;-85
2023/04/11 00:55:35;;;;;;;5.13;1.70;;;7.00;99.90;;;;;;4992890;28;20065;-84
2023/04/11 00:58:00;;;;;;;6.10;2.00;;;7.10;99.90;;;;;;4976241;28;20479;-84
2023/04/11 01:00:26;;;;;;;7.20;1.90;;;7.50;99.90;;;;;;4992285;28;20084;-84
2023/04/11 01:02:52;;;;;;;3.25;1.50;;;7.10;99.90;;;;;;4992461;28;20177;-84
2023/04/11 01:05:18;;;;;;;6.90;1.85;;;7.30;99.90;;;;;;4992734;28;20407;-84
2023/04/11 01:07:45;;;;;;;4.75;1.50;;;7.20;99.90;;;;;;4992635;28;20061;-85
2023/04/11 01:10:11;;;;;;;10.27;1.98;;;7.30;99.90;;;;;;4992352;28;20054;-85
2023/04/11 01:12:37;;;;;;;6.63;1.80;;;7.30;99.90;;;;;;5009965;28;20098;-85
2023/04/11 01:15:03;;;;;;;8.48;2.05;;;7.30;99.90;;;;;;4976125;28;20145;-85
2023/04/11 01:17:28;;;;;;;6.50;1.73;;;7.30;99.90;;;;;;4975808;28;20100;-85
2023/04/11 01:19:54;;;;;;;7.30;1.83;;;7.30;99.90;;;;;;4975768;28;20056;-86
2023/04/11 01:22:21;;;;;;;7.10;1.98;;;7.20;99.90;;;;;;4991688;28;20053;-84
2023/04/11 01:24:47;;;;;;;7.88;2.25;;;7.10;99.90;;;;;;4976256;28;20125;-86
2023/04/11 01:27:13;;;;;;;7.50;1.90;;;7.10;99.90;;;;;;5008226;28;20756;-85
2023/04/11 01:29:39;;;;;;;9.43;2.10;;;7.10;99.90;;;;;;4991874;28;20200;-85
2023/04/11 01:32:05;;;;;;;6.22;2.00;;;7.20;99.90;;;;;;4992048;28;20136;-84
2023/04/11 01:34:30;;;;;;;7.32;2.47;;;7.10;99.90;;;;;;5008245;28;20042;-85
2023/04/11 01:36:56;;;;;;;8.20;2.28;;;7.20;99.90;;;;;;4992278;28;20053;-85
2023/04/11 01:39:22;;;;;;;16.58;2.40;;;7.10;99.90;;;;;;4992361;28;20046;-85
2023/04/11 01:41:47;;;;;;;7.70;2.30;;;7.10;99.90;;;;;;4992439;28;20450;-85
2023/04/11 01:44:13;;;;;;;13.93;2.28;;;7.10;99.90;;;;;;4976201;28;20769;-85
2023/04/11 01:46:39;;;;;;;10.10;2.30;;;7.10;99.90;;;;;;4975946;28;20093;-86
2023/04/11 01:49:06;;;;;;;6.40;2.10;;;7.10;99.90;;;;;;4991816;28;20058;-85
2023/04/11 01:51:32;;;;;;;10.30;2.28;;;7.00;99.90;;;;;;4992074;28;20085;-86
2023/04/11 01:53:57;;;;;;;8.52;2.30;;;7.00;99.90;;;;;;5008548;28;20093;-85
2023/04/11 01:56:23;;;;;;;11.98;2.67;;;6.90;99.90;;;;;;4992076;28;20406;-85
2023/04/11 01:58:49;;;;;;;7.68;2.30;;;6.90;99.90;;;;;;5025001;28;20811;-85
2023/04/11 02:01:18;;;;;;;8.80;2.60;;;6.90;99.90;;;;;;4991669;28;20560;-86
2023/04/11 02:03:44;;;;;;;7.40;2.40;;;6.90;99.90;;;;;;4992200;28;20136;-84
2023/04/11 02:06:10;;;;;;;9.02;2.22;;;6.90;99.90;;;;;;4991724;28;20061;-84
2023/04/11 02:08:36;;;;;;;12.70;3.13;;;6.90;99.90;;;;;;4991351;28;20065;-84
2023/04/11 02:11:01;;;;;;;9.52;2.42;;;6.90;99.90;;;;;;4991747;28;20129;-84
2023/04/11 02:13:27;;;;;;;9.80;2.60;;;6.90;99.90;;;;;;4991736;28;20046;-84
2023/04/11 02:15:53;;;;;;;16.73;2.70;;;7.00;99.90;;;;;;4991751;28;20053;-85
2023/04/11 02:18:18;;;;;;;12.07;3.00;;;7.00;99.90;;;;;;4991367;28;20072;-83
2023/04/11 02:20:44;;;;;;;9.73;2.63;;;7.10;99.90;;;;;;5007133;28;20053;-84
2023/04/11 02:23:11;;;;;;;12.18;2.75;;;7.10;99.90;;;;;;4991682;28;20049;-84
2023/04/11 02:25:37;;;;;;;8.80;2.33;;;7.40;99.90;;;;;;5007846;28;20068;-84
2023/04/11 02:28:03;;;;;;;12.48;3.08;;;7.20;99.90;;;;;;5008054;28;20045;-84
2023/04/11 02:30:29;;;;;;;9.75;2.65;;;7.20;99.90;;;;;;4975240;28;20061;-85
2023/04/11 02:32:54;;;;;;;14.05;2.88;;;7.20;99.90;;;;;;5007624;28;20049;-84
2023/04/11 02:35:20;;;;;;;9.02;2.60;;;7.20;99.90;;;;;;5009510;28;20049;-85
2023/04/11 02:37:46;;;;;;;4.05;1.60;;;7.10;99.90;;;;;;4978789;28;20053;-85
2023/04/11 02:40:11;;;;;;;3.65;1.77;;;7.20;99.90;;;;;;5011248;28;20050;-84
2023/04/11 02:42:39;;;;;;;3.13;2.08;;;7.20;99.90;;;;;;5011780;28;20053;-85
2023/04/11 02:45:05;;;;;;;6.80;1.88;;;7.30;99.90;;;;;;5011416;28;20058;-84
2023/04/11 02:47:31;;;;;;;3.38;1.75;;;7.30;99.90;;;;;;5011179;28;20058;-85
2023/04/11 02:49:56;;;;;;;6.80;2.35;;;7.30;99.90;;;;;;4994704;28;20486;-85
2023/04/11 02:52:22;;;;;;;5.90;2.03;;;7.30;99.90;;;;;;5011350;28;20046;-85
2023/04/11 02:54:48;;;;;;;6.13;2.50;;;7.30;99.90;;;;;;5012600;28;20050;-84
2023/04/11 02:57:14;;;;;;;5.88;1.80;;;7.30;99.90;;;;;;4994581;28;20061;-85
2023/04/11 02:59:39;;;;;;;5.93;1.67;;;7.20;99.90;;;;;;5027793;28;20060;-85
2023/04/11 03:02:05;;;;;;;5.68;1.60;;;7.20;99.90;;;;;;5010820;28;20046;-84
2023/04/11 03:04:30;;;;;;;3.55;1.48;;;7.40;99.90;;;;;;5010991;28;20074;-84
2023/04/11 03:06:56;;;;;;;5.47;1.52;;;7.20;99.90;;;;;;4994731;28;20075;-84
2023/04/11 03:09:22;;;;;;;6.30;1.33;;;7.20;99.90;;;;;;5011200;28;20046;-84
2023/04/11 03:11:48;;;;;;;4.00;1.38;;;7.20;99.90;;;;;;5010801;28;20164;-85
2023/04/11 03:14:13;;;;;;;4.05;1.20;;;7.10;99.90;;;;;;4994567;28;20056;-84
2023/04/11 03:16:39;;;;;;;3.85;1.08;;;7.10;99.90;;;;;;5010979;28;20096;-85
2023/04/11 03:19:05;;;;;;;3.33;1.48;;;7.10;99.90;;;;;;5010400;28;20056;-85
2023/04/11 03:21:30;;;;;;;4.70;1.30;;;7.10;99.90;;;;;;4994484;28;20393;-84
2023/04/11 03:23:56;;;;;;;3.10;1.40;;;7.10;99.90;;;;;;5010812;28;20054;-84
2023/04/11 03:26:25;;;;;;;2.38;1.30;;;7.10;99.90;;;;;;4994347;28;20057;-84
2023/04/11 03:28:52;;;;;;;4.57;1.40;;;7.20;99.90;;;;;;4994866;28;20042;-84
2023/04/11 03:31:18;;;;;;;1.85;1.40;;;7.20;99.90;;;;;;5010716;28;20049;-85
2023/04/11 03:33:45;;;;;;;2.53;1.23;;;7.10;99.90;;;;;;4978327;28;20100;-84
2023/04/11 03:36:10;;;;;;;4.22;1.75;;;7.10;99.90;;;;;;4994205;28;20056;-85
2023/04/11 03:38:36;;;;;;;6.10;1.58;;;7.10;99.90;;;;;;5010963;28;20038;-85
2023/04/11 03:41:02;;;;;;;2.75;1.50;;;7.00;99.90;;;;;;5010681;28;20756;-84
2023/04/11 03:43:27;;;;;;;3.50;1.40;;;7.10;99.90;;;;;;4994985;28;20058;-84
2023/04/11 03:45:53;;;;;;;4.15;1.60;;;7.00;99.90;;;;;;5010554;28;20482;-85
2023/04/11 03:48:19;;;;;;;5.38;1.60;;;7.00;99.90;;;;;;5011813;28;20054;-85
2023/04/11 03:50:44;;;;;;;3.10;1.48;;;7.00;99.90;;;;;;5010187;28;20065;-85
2023/04/11 03:53:10;;;;;;;3.25;1.60;;;7.00;99.90;;;;;;5010798;28;20046;-86
2023/04/11 03:55:35;;;;;;;6.43;1.60;;;6.90;99.90;;;;;;4994132;28;20046;-85
2023/04/11 03:58:01;;;;;;;3.75;1.50;;;7.00;99.90;;;;;;5010191;28;20100;-85
2023/04/11 04:00:27;;;;;;;5.00;1.75;;;7.00;99.90;;;;;;5010108;28;20049;-84
2023/04/11 04:02:52;;;;;;;4.03;1.75;;;7.00;99.90;;;;;;4977519;28;20069;-85
2023/04/11 04:05:18;;;;;;;5.18;1.77;;;7.00;99.90;;;;;;4993961;28;20056;-84
2023/04/11 04:07:44;;;;;;;6.07;1.92;;;7.00;99.90;;;;;;4980578;28;20137;-84
2023/04/11 04:10:10;;;;;;;7.35;2.33;;;7.10;99.90;;;;;;5029778;28;20042;-85
2023/04/11 04:12:35;;;;;;;8.75;2.35;;;7.10;99.90;;;;;;4996961;28;20107;-86
2023/04/11 04:15:01;;;;;;;6.20;2.00;;;7.10;99.90;;;;;;4996638;28;20474;-84
2023/04/11 04:17:27;;;;;;;9.82;2.08;;;7.10;99.90;;;;;;5013065;28;20394;-84
2023/04/11 04:19:52;;;;;;;5.70;1.90;;;7.20;99.90;;;;;;5013883;28;20042;-84
2023/04/11 04:22:18;;;;;;;4.53;2.10;;;7.20;99.90;;;;;;5012989;28;20045;-84
2023/04/11 04:24:46;;;;;;;6.25;2.45;;;7.20;99.90;;;;;;5013063;28;20057;-84
2023/04/11 04:27:18;;;;;;;12.95;2.30;;;7.20;99.90;;;;;;5012992;28;20436;-85
2023/04/11 04:29:47;;;;;;;10.55;2.95;;;7.30;99.90;;;;;;4997499;28;20053;-84
2023/04/11 04:32:13;;;;;;;9.57;2.38;;;7.30;99.90;;;;;;4983931;28;20058;-83
2023/04/11 04:34:45;;;;;;;6.75;2.65;;;7.40;99.90;;;;;;4973226;28;20598;-84
2023/04/11 04:37:20;;;;;;;12.90;3.35;;;7.40;99.90;;;;;;4973108;28;20491;-83
2023/04/11 04:40:00;;;;;;;11.70;3.00;;;7.50;99.90;;;;;;4973105;28;20054;-84
2023/04/11 04:42:27;;;;;;;12.38;2.78;;;7.50;99.90;;;;;;4972931;28;20086;-85
2023/04/11 04:44:54;;;;;;;9.73;2.80;;;7.60;99.90;;;;;;4973015;28;20051;-83
2023/04/11 04:47:24;;;;;;;9.38;3.05;;;7.60;99.90;;;;;;4973010;28;20539;-84
2023/04/11 04:49:54;;;;;;;8.55;3.10;;;7.70;99.90;;;;;;4972388;28;20059;-85
2023/04/11 04:52:19;;;;;;;8.63;2.90;;;7.60;99.90;;;;;;4973021;28;20208;-84
2023/04/11 04:54:45;;;;;;;9.27;3.08;;;7.70;99.90;;;;;;4972562;28;20153;-83
2023/04/11 04:57:11;;;;;;;8.25;3.38;;;7.60;99.90;;;;;;4971823;28;20058;-84
2023/04/11 04:59:36;;;;;;;7.38;3.08;;;7.60;99.90;;;;;;4972372;28;20053;-85
2023/04/11 05:02:02;;;;;;;8.52;2.88;;;7.70;99.90;;;;;;4974392;28;20100;-83
2023/04/11 05:04:29;;;;;;;6.38;2.60;;;7.70;99.90;;;;;;4975751;28;20184;-84
2023/04/11 05:06:54;;;;;;;11.90;3.03;;;7.70;99.90;;;;;;4992025;28;20054;-83
2023/04/11 05:09:20;;;;;;;8.63;2.45;;;7.70;99.90;;;;;;4992497;28;20054;-82
2023/04/11 05:11:46;;;;;;;14.40;3.25;;;7.70;99.90;;;;;;4992032;28;20152;-83
2023/04/11 05:14:12;;;;;;;12.82;3.08;;;7.70;99.90;;;;;;4991381;28;20058;-84
2023/04/11 05:16:40;;;;;;;7.22;2.60;;;7.70;99.90;;;;;;4991467;28;20046;-83
2023/04/11 05:19:05;;;;;;;15.43;3.10;;;7.70;99.90;;;;;;5007703;28;20090;-84
2023/04/11 05:21:31;;;;;;;11.18;3.20;;;7.70;99.90;;;;;;4991577;28;20132;-83
2023/04/11 05:23:57;;;;;;;12.00;2.80;;;7.70;99.90;;;;;;4991529;28;20057;-83
2023/04/11 05:26:22;;;;;;;12.60;2.40;;;7.70;99.90;;;;;;4992188;28;20455;-82
2023/04/11 05:28:48;;;;;;;12.07;2.90;;;7.70;99.90;;;;;;4991427;28;20077;-84
2023/04/11 05:31:15;;;;;;;9.68;2.60;;;7.70;99.90;;;;;;4974199;28;20050;-84
2023/04/11 05:33:42;;;;;;;12.70;3.25;;;7.60;99.90;;;;;;4974580;28;20042;-84
2023/04/11 05:36:12;;;;;;;10.25;2.67;;;7.70;99.90;;;;;;4990952;28;20137;-83
2023/04/11 05:38:41;;;;;;;7.20;3.08;;;7.70;99.90;;;;;;4991044;28;20050;-84
2023/04/11 05:41:07;;;;;;;10.13;2.63;;;7.70;99.90;;;;;;4990587;28;20050;-83
2023/04/11 05:43:33;;;;;;;7.45;2.60;;;7.80;99.90;;;;;;4990456;28;20460;-84
2023/04/11 05:45:58;;;;;;;10.65;2.97;;;7.70;99.90;;;;;;4990048;28;20121;-84
2023/04/11 05:48:24;;;;;;;7.07;2.50;;;7.70;99.90;;;;;;4990171;28;20050;-84
2023/04/11 05:50:50;;;;;;;9.07;2.90;;;7.70;99.90;;;;;;4989903;28;20053;-84
2023/04/11 05:53:16;;;;;;;11.63;2.78;;;7.70;99.90;;;;;;4990329;28;20093;-83
2023/04/11 05:55:41;;;;;;;15.15;2.75;;;7.60;99.90;;;;;;4990368;28;20042;-84
2023/04/11 05:58:08;;;;;;;8.73;2.90;;;7.60;99.90;;;;;;4989788;28;20162;-84
2023/04/11 06:00:34;;;;;;;9.55;2.75;;;7.60;99.90;;;;;;4989691;28;20517;-85
2023/04/11 06:03:00;;;;;;;11.63;2.65;;;7.60;99.90;;;;;;4989091;28;20050;-84
2023/04/11 06:05:30;;;;;;;9.98;3.00;;;7.60;99.90;;;;;;4989126;28;20475;-84
2023/04/11 06:07:57;;;;;;;11.00;3.10;;;7.60;99.90;;;;;;4989409;28;20773;-84
2023/04/11 06:10:22;;;;;;;14.30;3.70;;;7.60;99.90;;;;;;4992106;28;20062;-85
2023/04/11 06:12:48;;;;;;;12.93;3.00;;;7.70;99.90;;;;;;4977165;28;20472;-84
2023/04/11 06:15:14;;;;;;;12.15;3.00;;;7.70;99.90;;;;;;4992808;28;20206;-84
2023/04/11 06:17:39;;;;;;;7.60;2.97;;;7.70;99.90;;;;;;4992653;28;20373;-83
2023/04/11 06:20:07;;;;;;;11.60;2.97;;;7.70;99.90;;;;;;4992609;28;20462;-84
2023/04/11 06:22:33;;;;;;;9.15;2.80;;;7.80;99.90;;;;;;4993412;28;20046;-83
2023/04/11 06:24:58;;;;;;;11.35;4.75;;;7.80;99.90;;;;;;4993700;28;20372;-84
2023/04/11 06:27:25;;;;;;;11.32;3.38;;;7.80;99.90;;;;;;4993245;28;20062;-85
2023/04/11 06:29:51;;;;;;;12.73;2.72;;;7.90;99.90;;;;;;4992867;28;20121;-83
2023/04/11 06:32:16;;;;;;;6.68;2.50;;;8.00;99.90;;;;;;4992714;28;20431;-86
2023/04/11 06:34:42;;;;;;;11.18;2.80;;;8.00;99.90;;;;;;4993127;28;20503;-83
2023/04/11 06:37:08;;;;;;;9.50;2.53;;;8.10;99.90;;;;;;4993010;28;20046;-83
2023/04/11 06:39:34;;;;;;;6.70;2.90;;;8.10;99.90;;;;;;4976556;28;20201;-84
2023/04/11 06:42:00;;;;;;;8.20;2.85;;;8.10;99.90;;;;;;4991827;28;20053;-84
2023/04/11 06:44:26;;;;;;;9.80;2.75;;;7.90;99.90;;;;;;4991709;28;20057;-83
2023/04/11 06:46:51;;;;;;;8.90;2.65;;;7.80;99.90;;;;;;4991936;28;20057;-85
2023/04/11 06:49:17;;;;;;;11.68;2.90;;;7.70;99.90;;;;;;4991295;28;20046;-84
2023/04/11 06:51:46;;;;;;;10.13;2.90;;;7.70;99.90;;;;;;4992031;28;20042;-84
2023/04/11 06:54:11;;;;;;;10.02;2.92;;;7.90;99.90;;;;;;4991922;28;20171;-85
2023/04/11 06:56:37;;;;;;;7.95;2.92;;;8.00;99.90;;;;;;4991420;28;20121;-85
2023/04/11 06:59:03;;;;;;;12.35;3.53;;;8.20;99.90;;;;;;4975052;28;20065;-85
2023/04/11 07:01:36;;;;;;;11.52;3.05;;;8.20;99.90;;;;;;4990962;28;20057;-85
2023/04/11 07:04:05;;;;;;;9.25;2.55;;;8.30;99.90;;;;;;4991332;28;20069;-84
2023/04/11 07:06:31;;;;;;;10.35;2.45;;;8.20;99.90;;;;;;4991678;28;20387;-85
2023/04/11 07:08:59;;;;;;;9.32;2.55;;;8.20;99.90;;;;;;5007640;28;20053;-84
2023/04/11 07:11:25;;;;;;;11.70;3.20;;;8.20;99.90;;;;;;4992129;28;20055;-84
2023/04/11 07:13:51;;;;;;;9.43;3.03;;;8.20;99.90;;;;;;4992065;28;20060;-82
2023/04/11 07:16:17;;;;;;;5.63;2.38;;;8.40;99.90;;;;;;4992059;28;20065;-85
2023/04/11 07:18:43;;;;;;;10.30;2.58;;;8.50;99.90;;;;;;4991835;28;20050;-86
2023/04/11 07:21:12;;;;;;;18.13;3.05;;;8.70;99.90;;;;;;4990895;28;20132;-85
2023/04/11 07:23:38;;;;;;;11.57;2.42;;;8.70;99.90;;;;;;4992706;28;20093;-85
2023/04/11 07:26:04;;;;;;;10.48;2.30;;;9.00;99.90;;;;;;4992296;28;20487;-85
2023/04/11 07:28:30;;;;;;;10.00;2.35;;;9.40;99.90;;;;;;4992347;28;20054;-85
2023/04/11 07:30:59;;;;;;;9.93;2.22;;;10.00;99.90;;;;;;4991310;28;20497;-84
2023/04/11 07:33:25;;;;;;;10.27;2.50;;;10.90;99.90;;;;;;4974900;28;20062;-84
2023/04/11 07:35:50;;;;;;;10.57;2.45;;;11.50;99.90;;;;;;4975313;28;20054;-84
2023/04/11 07:38:26;;;;;;;10.85;2.40;;;11.70;99.90;;;;;;4993205;28;20042;-86
2023/04/11 07:40:52;;;;;;;13.45;2.80;;;11.70;99.90;;;;;;4993290;28;20445;-83
2023/04/11 07:43:17;;;;;;;8.30;2.15;;;11.60;99.90;;;;;;5016376;28;20038;-83
2023/04/11 07:45:43;;;;;;;6.93;2.10;;;11.80;99.90;;;;;;5007970;28;20127;-83
2023/04/11 07:48:09;;;;;;;10.95;2.30;;;11.70;99.90;;;;;;4993202;28;20053;-84
2023/04/11 07:50:34;;;;;;;7.53;2.10;;;11.60;99.90;;;;;;4992768;28;20132;-84
2023/04/11 07:53:01;;;;;;;11.70;2.45;;;11.20;99.90;;;;;;5009524;28;20129;-85
2023/04/11 07:55:26;;;;;;;9.02;1.98;;;11.00;99.90;;;;;;4993789;28;20104;-85
2023/04/11 07:57:52;;;;;;;9.75;2.72;;;11.30;99.90;;;;;;4993004;28;20046;-85
2023/04/11 08:00:21;;;;;;;6.75;1.67;;;11.30;99.90;;;;;;4993682;28;20116;-83
2023/04/11 08:02:47;;;;;;;12.48;2.60;;;11.10;99.90;;;;;;4985201;28;20054;-83
2023/04/11 08:05:12;;;;;;;12.38;3.38;;;10.70;99.90;;;;;;4982405;28;20858;-84
2023/04/11 08:07:38;;;;;;;10.65;2.63;;;10.40;99.90;;;;;;4984481;28;20057;-84
2023/04/11 08:10:04;;;;;;;14.98;2.70;;;10.70;99.90;;;;;;4982897;28;20050;-84
2023/04/11 08:12:30;;;;;;;9.50;2.63;;;10.70;99.90;;;;;;4974349;28;20398;-83
2023/04/11 08:14:55;;;;;;;8.50;2.00;;;10.80;99.90;;;;;;4999858;28;20132;-83
2023/04/11 08:17:24;;;;;;;9.50;2.53;;;10.70;99.90;;;;;;4998499;28;20138;-85
2023/04/11 08:19:50;;;;;;;9.13;2.65;;;11.70;99.90;;;;;;4998221;28;20061;-84
2023/04/11 08:22:16;;;;;;;12.57;2.53;;;12.20;99.90;;;;;;5001293;28;20045;-86
2023/04/11 08:24:42;;;;;;;10.18;2.28;;;12.20;99.90;;;;;;5000521;28;20046;-84
2023/04/11 08:27:08;;;;;;;11.85;2.30;;;11.90;99.90;;;;;;4982939;28;20390;-81
2023/04/11 08:29:33;;;;;;;11.98;2.22;;;11.60;99.90;;;;;;5022396;28;20656;-85
2023/04/11 08:31:59;;;;;;;8.18;2.17;;;11.20;99.90;;;;;;5008581;28;20065;-86
2023/04/11 08:34:25;;;;;;;10.13;2.20;;;11.40;99.90;;;;;;5000060;28;20174;-87
2023/04/11 08:36:50;;;;;;;7.63;2.25;;;12.10;99.90;;;;;;4991755;28;20112;-84
2023/04/11 08:39:16;;;;;;;11.27;1.80;;;12.40;99.90;;;;;;4996452;28;20570;-85
2023/04/11 08:41:42;;;;;;;5.22;1.50;;;12.80;99.90;;;;;;4976518;28;20054;-86
2023/04/11 08:44:11;;;;;;;7.32;1.83;;;12.40;99.90;;;;;;4968662;28;20042;-86
2023/04/11 08:46:40;;;;;;;7.78;1.67;;;10.90;99.90;;;;;;4986407;28;20054;-86
2023/04/11 08:49:06;;;;;;;4.40;1.52;;;10.50;99.90;;;;;;4974334;28;20121;-86
2023/04/11 08:51:31;;;;;;;4.10;1.38;;;9.70;99.90;;;;;;4970459;28;20188;-86
2023/04/11 08:53:58;;;;;;;8.15;1.90;;;9.20;99.90;;;;;;5001978;28;20236;-86
2023/04/11 08:56:24;;;;;;;6.07;1.92;;;9.30;99.90;;;;;;4971742;28;20054;-85
2023/04/11 08:58:50;;;;;;;7.50;2.00;;;9.30;99.90;;;;;;4991156;28;20384;-85
2023/04/11 09:01:25;;;;;;;7.60;1.67;;;9.10;99.90;;;;;;4989057;28;20054;-86
2023/04/11 09:03:51;;;;;;;13.07;2.28;;;9.20;99.90;;;;;;4998929;28;20058;-85
2023/04/11 09:06:17;;;;;;;4.18;1.65;;;8.90;99.90;;;;;;4982087;28;20038;-87
2023/04/11 09:08:42;;;;;;;7.10;1.45;;;8.80;99.90;;;;;;4984318;28;20103;-86
2023/04/11 09:11:08;;;;;;;8.85;2.15;;;8.60;99.90;;;;;;4986689;28;20064;-87
2023/04/11 09:13:34;;;;;;;6.75;1.95;;;8.60;99.90;;;;;;4981535;28;20048;-84
2023/04/11 09:16:10;;;;;;;6.55;1.52;;;8.50;99.90;;;;;;4998135;28;20509;-84
2023/04/11 09:18:45;;;;;;;7.63;2.10;;;8.60;99.90;;;;;;4984422;28;20184;-85
2023/04/11 09:21:13;;;;;;;9.52;2.33;;;9.00;99.90;;;;;;4968023;28;20053;-85
2023/04/11 09:23:38;;;;;;;8.07;2.53;;;9.40;99.90;;;;;;4961081;28;20050;-85
2023/04/11 09:26:05;;;;;;;9.23;2.40;;;9.50;99.90;;;;;;4991082;28;20881;-85
2023/04/11 09:28:49;;;;;;;6.68;2.55;;;9.30;99.90;;;;;;4974735;28;20049;-85
2023/04/11 09:31:15;;;;;;;8.85;2.17;;;8.80;99.90;;;;;;4967590;28;20058;-83
2023/04/11 09:33:52;;;;;;;9.43;1.77;;;9.30;99.90;;;;;;4950297;28;20127;-85
2023/04/11 09:36:21;;;;;;;6.05;1.80;;;10.60;99.90;;;;;;4990484;28;20053;-83
2023/04/11 09:38:47;;;;;;;8.90;2.05;;;11.70;99.90;;;;;;4992303;28;20046;-83
2023/04/11 09:41:13;;;;;;;5.50;1.50;;;12.10;99.90;;;;;;4975368;28;20057;-84
2023/04/11 09:43:52;;;;;;;7.13;1.98;;;11.60;99.90;;;;;;4991152;28;20084;-84
2023/04/11 09:46:19;;;;;;;8.70;2.38;;;11.10;99.90;;;;;;4991699;28;20103;-84
2023/04/11 09:48:45;;;;;;;7.18;1.77;;;10.40;99.90;;;;;;4991801;28;20502;-84
2023/04/11 09:51:11;;;;;;;8.55;1.98;;;10.50;99.90;;;;;;4990994;28;20049;-84
2023/04/11 09:53:37;;;;;;;5.20;1.70;;;10.20;99.90;;;;;;4975161;28;20115;-84
2023/04/11 09:56:03;;;;;;;6.13;1.35;;;9.70;99.90;;;;;;4975328;28;20045;-84
2023/04/11 09:58:30;;;;;;;8.82;1.48;;;9.80;99.90;;;;;;4991042;28;20532;-84
2023/04/11 10:00:58;;;;;;;7.70;1.75;;;10.00;99.90;;;;;;4954751;28;20050;-83
2023/04/11 10:03:26;;;;;;;7.63;1.85;;;10.30;99.90;;;;;;4971575;28;20054;-84
2023/04/11 10:05:56;;;;;;;8.82;1.92;;;11.20;99.90;;;;;;5013935;28;20497;-84
2023/04/11 10:08:31;;;;;;;6.82;1.88;;;12.10;99.90;;;;;;4982000;28;20565;-83
2023/04/11 10:10:58;;;;;;;10.52;2.28;;;12.50;99.90;;;;;;4981947;28;20402;-84
2023/04/11 10:13:42;;;;;;;10.95;1.95;;;12.60;99.90;;;;;;4965860;28;20050;-82
2023/04/11 10:16:15;;;;;;;8.63;1.85;;;12.10;99.90;;;;;;4998705;28;20056;-84
2023/04/11 10:18:52;;;;;;;7.10;2.08;;;11.40;99.90;;;;;;4982679;28;20491;-84
2023/04/11 10:21:33;;;;;;;6.40;1.70;;;10.90;99.90;;;;;;4979976;28;20074;-85
2023/04/11 10:24:12;;;;;;;9.38;2.00;;;11.10;99.90;;;;;;4982440;28;20629;-85
2023/04/11 10:26:53;;;;;;;6.78;1.92;;;11.20;99.90;;;;;;4989391;28;20429;-85
2023/04/11 10:29:40;;;;;;;7.03;1.95;;;11.80;99.90;;;;;;5007212;28;20052;-84
2023/04/11 10:32:16;;;;;;;6.53;1.80;;;11.90;99.90;;;;;;4988296;28;20097;-83
2023/04/11 10:34:53;;;;;;;7.82;1.92;;;12.40;99.90;;;;;;4996513;28;20119;-84
2023/04/11 10:37:32;;;;;;;4.78;1.55;;;12.50;99.90;;;;;;5002086;28;20093;-85
2023/04/11 10:40:01;;;;;;;6.25;1.52;;;12.50;99.90;;;;;;4984485;28;20050;-84
2023/04/11 10:42:31;;;;;;;10.15;2.10;;;12.60;99.90;;;;;;5007031;28;20057;-86
2023/04/11 10:45:38;;;;;;;9.18;1.90;;;12.10;99.90;;;;;;4996321;28;20379;-85
2023/04/11 10:48:06;;;;;;;9.27;2.15;;;11.80;99.90;;;;;;4979853;28;20050;-83
2023/04/11 10:50:32;;;;;;;9.63;2.03;;;11.00;99.90;;;;;;4968412;28;20116;-83
2023/04/11 10:52:59;;;;;;;8.25;2.95;;;10.60;99.90;;;;;;5007204;28;20456;-83
2023/04/11 10:55:27;;;;;;;7.93;2.10;;;10.30;99.90;;;;;;4990621;28;20065;-84
2023/04/11 10:58:05;;;;;;;9.27;1.80;;;10.20;99.90;;;;;;4978370;28;20049;-85
2023/04/11 11:00:47;;;;;;;8.80;1.60;;;10.20;99.90;;;;;;5010622;28;20073;-84
2023/04/11 11:03:16;;;;;;;8.43;2.17;;;10.60;99.90;;;;;;5010731;28;20054;-84
2023/04/11 11:05:41;;;;;;;5.07;1.80;;;10.80;99.90;;;;;;4994779;28;20132;-84
2023/04/11 11:08:07;;;;;;;5.93;1.38;;;10.60;99.90;;;;;;5010781;28;20156;-84
2023/04/11 11:10:40;;;;;;;3.17;1.08;;;11.00;99.90;;;;;;4978617;28;20046;-81
2023/04/11 11:13:06;;;;;;;3.60;1.10;;;11.30;99.90;;;;;;4994641;28;20060;-85
2023/04/11 11:15:36;;;;;;;3.72;1.30;;;10.80;99.90;;;;;;4978080;28;20053;-83
2023/04/11 11:18:03;;;;;;;4.18;1.52;;;10.40;99.90;;;;;;4994350;28;20058;-84
2023/04/11 11:20:29;;;;;;;3.15;1.30;;;10.50;99.90;;;;;;4993786;28;20129;-82
2023/04/11 11:23:02;;;;;;;4.97;1.60;;;9.80;99.90;;;;;;4978185;28;20456;-83
2023/04/11 11:25:28;;;;;;;3.73;1.40;;;9.60;99.90;;;;;;4978146;28;20062;-82
2023/04/11 11:28:04;;;;;;;8.48;1.83;;;9.50;99.90;;;;;;5026867;28;20057;-83
2023/04/11 11:30:30;;;;;;;5.60;1.40;;;9.20;99.90;;;;;;4978222;28;20069;-83
2023/04/11 11:32:56;;;;;;;5.25;1.35;;;9.00;99.90;;;;;;4977912;28;20049;-84
2023/04/11 11:35:22;;;;;;;6.05;1.70;;;8.90;99.90;;;;;;4993896;28;20057;-84
2023/04/11 11:37:52;;;;;;;5.82;1.58;;;8.80;99.90;;;;;;5009704;28;20121;-85
2023/04/11 11:40:21;;;;;;;5.93;2.10;;;8.70;99.90;;;;;;4976110;28;20080;-84
2023/04/11 11:42:48;;;;;;;6.30;2.05;;;7.50;99.90;;;;;;4985315;28;20485;-83
2023/04/11 11:45:21;;;;;;;8.65;1.67;;;8.20;99.90;;;;;;4987871;28;20100;-83
2023/04/11 11:47:47;;;;;;;4.53;1.33;;;8.50;99.90;;;;;;4977654;28;20149;-84
2023/04/11 11:50:30;;;;;;;8.30;1.95;;;9.20;99.90;;;;;;5008825;28;20493;-83
2023/04/11 11:53:13;;;;;;;8.35;1.90;;;9.60;99.90;;;;;;4993254;28;20104;-83
2023/04/11 11:55:39;;;;;;;6.13;2.50;;;9.80;99.90;;;;;;4993929;28;20058;-83
2023/04/11 11:58:05;;;;;;;7.32;1.80;;;9.80;99.90;;;;;;5008408;28;20046;-83
2023/04/11 12:00:36;;;;;;;10.52;2.15;;;9.70;99.90;;;;;;5008643;28;20162;-84
2023/04/11 12:03:02;;;;;;;7.40;2.47;;;9.50;99.90;;;;;;5009371;28;20052;-84
2023/04/11 12:05:29;;;;;;;6.45;1.88;;;9.80;99.90;;;;;;4987259;28;20053;-84
2023/04/11 12:07:57;;;;;;;6.28;2.00;;;10.00;99.90;;;;;;4984234;28;20046;-83
2023/04/11 12:10:23;;;;;;;9.27;2.00;;;10.40;99.90;;;;;;4982784;28;20073;-85
2023/04/11 12:12:49;;;;;;;6.88;2.00;;;10.00;99.90;;;;;;5008603;28;20446;-83
2023/04/11 12:15:18;;;;;;;10.25;2.10;;;10.30;99.90;;;;;;4993148;28;20068;-83
2023/04/11 12:17:48;;;;;;;6.93;2.00;;;10.40;99.90;;;;;;5009325;28;20046;-81
2023/04/11 12:20:14;;;;;;;12.20;2.92;;;9.90;99.90;;;;;;4992694;28;20046;-81
2023/04/11 12:22:40;;;;;;;6.55;2.10;;;10.00;99.90;;;;;;4992530;28;20479;-83
2023/04/11 12:25:10;;;;;;;10.02;2.58;;;9.90;99.90;;;;;;4967410;28;20077;-82
2023/04/11 12:27:36;;;;;;;9.18;1.70;;;9.80;99.90;;;;;;4967426;28;20500;-83
2023/04/11 12:30:05;;;;;;;9.48;2.95;;;10.10;99.90;;;;;;4966090;28;20046;-83
2023/04/11 12:32:34;;;;;;;11.43;3.08;;;10.30;99.90;;;;;;5008301;28;20057;-84
2023/04/11 12:35:00;;;;;;;8.18;2.40;;;10.60;99.90;;;;;;5005915;28;20109;-83
2023/04/11 12:37:26;;;;;;;5.60;1.70;;;11.30;99.90;;;;;;4983468;28;20048;-82
2023/04/11 12:39:51;;;;;;;4.90;1.23;;;11.60;99.90;;;;;;4982551;28;20129;-84
2023/04/11 12:42:17;;;;;;;9.82;1.77;;;11.60;99.90;;;;;;4981713;28;20074;-84
2023/04/11 12:44:43;;;;;;;9.90;1.55;;;11.00;99.90;;;;;;4967477;28;20049;-83
2023/04/11 12:47:09;;;;;;;6.72;1.60;;;10.90;99.90;;;;;;4981858;28;20113;-83
2023/04/11 12:49:35;;;;;;;7.65;1.73;;;10.90;99.90;;;;;;4999793;28;20045;-84
2023/04/11 12:52:00;;;;;;;10.13;2.00;;;11.30;99.90;;;;;;4980597;28;20052;-84